sensor_id;sensor_type;location;lat;lon;timestamp;pressure;altitude;pressure_sealevel;temperature;humidity
30897;BME280;64229;52.246;21.054;2023-04-24T00:00:14;99685.75;;;13.09;52.02
30897;BME280;64229;52.246;21.054;2023-04-24T00:02:40;99689.81;;;13.06;51.71
30897;BME280;64229;52.246;21.054;2023-04-24T00:05:07;99676.81;;;12.99;52.48
30897;BME280;64229;52.246;21.054;2023-04-24T00:07:33;99679.88;;;12.93;52.60
30897;BME280;64229;52.246;21.054;2023-04-24T00:09:58;99669.00;;;12.70;53.23
30897;BME280;64229;52.246;21.054;2023-04-24T00:12:25;99669.66;;;12.62;53.81
30897;BME280;64229;52.246;21.054;2023-04-24T00:14:50;99671.94;;;12.55;54.27
30897;BME280;64229;52.246;21.054;2023-04-24T00:17:16;99671.16;;;12.55;54.46
30897;BME280;64229;52.246;21.054;2023-04-24T00:19:45;99675.78;;;12.49;54.62
30897;BME280;64229;52.246;21.054;2023-04-24T00:22:10;99652.66;;;12.39;54.78
30897;BME280;64229;52.246;21.054;2023-04-24T00:24:36;99668.47;;;12.55;54.85
30897;BME280;64229;52.246;21.054;2023-04-24T00:27:01;99665.50;;;12.56;54.80
30897;BME280;64229;52.246;21.054;2023-04-24T00:29:27;99664.78;;;12.51;55.22
30897;BME280;64229;52.246;21.054;2023-04-24T00:31:53;99661.41;;;12.45;55.28
30897;BME280;64229;52.246;21.054;2023-04-24T00:34:19;99666.75;;;12.45;55.43
30897;BME280;64229;52.246;21.054;2023-04-24T00:36:44;99669.63;;;12.49;55.58
30897;BME280;64229;52.246;21.054;2023-04-24T00:39:10;99665.97;;;12.44;55.64
30897;BME280;64229;52.246;21.054;2023-04-24T00:41:35;99642.53;;;12.36;55.74
30897;BME280;64229;52.246;21.054;2023-04-24T00:44:01;99654.03;;;12.37;55.98
30897;BME280;64229;52.246;21.054;2023-04-24T00:46:26;99661.56;;;12.35;56.11
30897;BME280;64229;52.246;21.054;2023-04-24T00:48:52;99658.78;;;12.40;56.30
30897;BME280;64229;52.246;21.054;2023-04-24T00:51:17;99662.84;;;12.37;55.96
30897;BME280;64229;52.246;21.054;2023-04-24T00:53:43;99661.13;;;12.28;56.56
30897;BME280;64229;52.246;21.054;2023-04-24T00:56:09;99649.53;;;12.32;56.53
30897;BME280;64229;52.246;21.054;2023-04-24T00:58:34;99656.03;;;12.45;56.04
30897;BME280;64229;52.246;21.054;2023-04-24T01:01:00;99646.19;;;12.40;56.23
30897;BME280;64229;52.246;21.054;2023-04-24T01:03:29;99658.78;;;12.40;56.41
30897;BME280;64229;52.246;21.054;2023-04-24T01:05:57;99657.16;;;12.25;57.30
30897;BME280;64229;52.246;21.054;2023-04-24T01:08:24;99658.09;;;12.15;57.76
30897;BME280;64229;52.246;21.054;2023-04-24T01:10:51;99660.47;;;12.17;57.98
30897;BME280;64229;52.246;21.054;2023-04-24T01:13:18;99664.31;;;12.11;57.86
30897;BME280;64229;52.246;21.054;2023-04-24T01:15:43;99670.59;;;12.01;58.49
30897;BME280;64229;52.246;21.054;2023-04-24T01:18:08;99659.97;;;12.15;58.23
30897;BME280;64229;52.246;21.054;2023-04-24T01:20:34;99654.13;;;12.13;57.96
30897;BME280;64229;52.246;21.054;2023-04-24T01:23:01;99656.56;;;12.09;57.92
30897;BME280;64229;52.246;21.054;2023-04-24T01:25:28;99637.28;;;11.94;58.12
30897;BME280;64229;52.246;21.054;2023-04-24T01:27:53;99656.22;;;12.16;57.73
30897;BME280;64229;52.246;21.054;2023-04-24T01:30:19;99658.81;;;12.21;57.41
30897;BME280;64229;52.246;21.054;2023-04-24T01:32:45;99654.78;;;12.24;56.93
30897;BME280;64229;52.246;21.054;2023-04-24T01:35:10;99652.38;;;12.22;56.91
30897;BME280;64229;52.246;21.054;2023-04-24T01:37:36;99640.81;;;12.08;57.34
30897;BME280;64229;52.246;21.054;2023-04-24T01:40:05;99658.44;;;12.09;57.77
30897;BME280;64229;52.246;21.054;2023-04-24T01:42:32;99630.84;;;11.95;57.69
30897;BME280;64229;52.246;21.054;2023-04-24T01:44:58;99641.16;;;12.01;57.83
30897;BME280;64229;52.246;21.054;2023-04-24T01:47:24;99643.63;;;11.98;58.31
30897;BME280;64229;52.246;21.054;2023-04-24T01:49:50;99642.47;;;11.85;58.48
30897;BME280;64229;52.246;21.054;2023-04-24T01:52:15;99641.59;;;11.71;59.07
30897;BME280;64229;52.246;21.054;2023-04-24T01:54:42;99629.84;;;11.67;59.41
30897;BME280;64229;52.246;21.054;2023-04-24T01:57:08;99619.78;;;11.58;59.70
30897;BME280;64229;52.246;21.054;2023-04-24T01:59:34;99625.88;;;11.64;59.87
30897;BME280;64229;52.246;21.054;2023-04-24T02:02:01;99633.69;;;11.61;60.15
30897;BME280;64229;52.246;21.054;2023-04-24T02:04:27;99624.22;;;11.49;60.57
30897;BME280;64229;52.246;21.054;2023-04-24T02:06:53;99618.72;;;11.41;61.05
30897;BME280;64229;52.246;21.054;2023-04-24T02:09:18;99613.91;;;11.38;61.13
30897;BME280;64229;52.246;21.054;2023-04-24T02:11:43;99613.41;;;11.36;61.29
30897;BME280;64229;52.246;21.054;2023-04-24T02:14:09;99606.78;;;11.33;61.49
30897;BME280;64229;52.246;21.054;2023-04-24T02:16:34;99616.09;;;11.36;61.49
30897;BME280;64229;52.246;21.054;2023-04-24T02:19:01;99608.72;;;11.27;61.52
30897;BME280;64229;52.246;21.054;2023-04-24T02:21:26;99610.34;;;11.23;61.23
30897;BME280;64229;52.246;21.054;2023-04-24T02:23:53;99603.94;;;11.24;61.12
30897;BME280;64229;52.246;21.054;2023-04-24T02:26:18;99602.22;;;11.34;60.98
30897;BME280;64229;52.246;21.054;2023-04-24T02:28:44;99592.44;;;11.24;60.83
30897;BME280;64229;52.246;21.054;2023-04-24T02:31:09;99574.97;;;11.13;60.72
30897;BME280;64229;52.246;21.054;2023-04-24T02:33:34;99587.91;;;11.24;60.56
30897;BME280;64229;52.246;21.054;2023-04-24T02:36:01;99566.78;;;11.04;60.04
30897;BME280;64229;52.246;21.054;2023-04-24T02:38:26;99569.91;;;11.11;59.97
30897;BME280;64229;52.246;21.054;2023-04-24T02:40:52;99565.69;;;11.05;59.74
30897;BME280;64229;52.246;21.054;2023-04-24T02:43:17;99598.53;;;11.29;59.77
30897;BME280;64229;52.246;21.054;2023-04-24T02:45:42;99603.94;;;11.24;60.41
30897;BME280;64229;52.246;21.054;2023-04-24T02:48:08;99602.28;;;11.28;60.69
30897;BME280;64229;52.246;21.054;2023-04-24T02:50:33;99594.13;;;11.20;61.38
30897;BME280;64229;52.246;21.054;2023-04-24T02:52:59;99600.75;;;11.22;61.82
30897;BME280;64229;52.246;21.054;2023-04-24T02:55:24;99594.59;;;11.46;60.24
30897;BME280;64229;52.246;21.054;2023-04-24T02:57:50;99601.50;;;11.47;60.06
30897;BME280;64229;52.246;21.054;2023-04-24T03:00:15;99594.41;;;11.37;60.03
30897;BME280;64229;52.246;21.054;2023-04-24T03:02:41;99587.06;;;11.29;60.26
30897;BME280;64229;52.246;21.054;2023-04-24T03:05:07;99595.69;;;11.21;60.50
30897;BME280;64229;52.246;21.054;2023-04-24T03:07:33;99592.53;;;11.19;60.87
30897;BME280;64229;52.246;21.054;2023-04-24T03:09:58;99592.13;;;11.07;61.35
30897;BME280;64229;52.246;21.054;2023-04-24T03:12:24;99590.31;;;11.02;61.49
30897;BME280;64229;52.246;21.054;2023-04-24T03:14:49;99589.00;;;10.99;61.63
30897;BME280;64229;52.246;21.054;2023-04-24T03:17:15;99587.13;;;11.00;61.51
30897;BME280;64229;52.246;21.054;2023-04-24T03:19:40;99587.69;;;10.97;61.44
30897;BME280;64229;52.246;21.054;2023-04-24T03:22:06;99587.16;;;10.95;61.84
30897;BME280;64229;52.246;21.054;2023-04-24T03:24:31;99583.78;;;10.89;62.38
30897;BME280;64229;52.246;21.054;2023-04-24T03:26:56;99593.38;;;10.90;62.43
30897;BME280;64229;52.246;21.054;2023-04-24T03:29:22;99590.69;;;10.90;62.68
30897;BME280;64229;52.246;21.054;2023-04-24T03:31:47;99580.34;;;10.84;62.56
30897;BME280;64229;52.246;21.054;2023-04-24T03:34:13;99596.00;;;10.95;62.54
30897;BME280;64229;52.246;21.054;2023-04-24T03:36:38;99599.50;;;10.91;62.91
30897;BME280;64229;52.246;21.054;2023-04-24T03:39:03;99589.69;;;10.86;63.12
30897;BME280;64229;52.246;21.054;2023-04-24T03:41:29;99585.34;;;10.66;63.93
30897;BME280;64229;52.246;21.054;2023-04-24T03:43:55;99609.50;;;10.80;63.63
30897;BME280;64229;52.246;21.054;2023-04-24T03:46:21;99608.69;;;10.80;64.35
30897;BME280;64229;52.246;21.054;2023-04-24T03:48:46;99604.38;;;10.84;63.75
30897;BME280;64229;52.246;21.054;2023-04-24T03:51:11;99601.47;;;10.80;63.88
30897;BME280;64229;52.246;21.054;2023-04-24T03:53:37;99600.97;;;10.78;64.21
30897;BME280;64229;52.246;21.054;2023-04-24T03:56:02;99598.13;;;10.69;64.54
30897;BME280;64229;52.246;21.054;2023-04-24T03:58:28;99599.78;;;10.65;65.02
30897;BME280;64229;52.246;21.054;2023-04-24T04:00:53;99599.19;;;10.68;64.66
30897;BME280;64229;52.246;21.054;2023-04-24T04:03:19;99598.78;;;10.56;65.38
30897;BME280;64229;52.246;21.054;2023-04-24T04:05:44;99598.78;;;10.56;65.58
30897;BME280;64229;52.246;21.054;2023-04-24T04:08:10;99607.00;;;10.60;65.56
30897;BME280;64229;52.246;21.054;2023-04-24T04:10:35;99599.78;;;10.65;65.81
30897;BME280;64229;52.246;21.054;2023-04-24T04:13:00;99604.59;;;10.63;66.15
30897;BME280;64229;52.246;21.054;2023-04-24T04:15:26;99597.53;;;10.72;66.16
30897;BME280;64229;52.246;21.054;2023-04-24T04:17:51;99591.19;;;10.68;66.00
30897;BME280;64229;52.246;21.054;2023-04-24T04:20:16;99598.19;;;10.64;66.15
30897;BME280;64229;52.246;21.054;2023-04-24T04:22:42;99596.75;;;10.72;66.19
30897;BME280;64229;52.246;21.054;2023-04-24T04:25:07;99601.25;;;10.77;65.99
30897;BME280;64229;52.246;21.054;2023-04-24T04:27:33;99603.53;;;10.88;65.37
30897;BME280;64229;52.246;21.054;2023-04-24T04:29:59;99613.06;;;10.94;65.26
30897;BME280;64229;52.246;21.054;2023-04-24T04:32:31;99608.69;;;11.04;65.01
30897;BME280;64229;52.246;21.054;2023-04-24T04:34:58;99611.66;;;11.02;65.10
30897;BME280;64229;52.246;21.054;2023-04-24T04:37:31;99607.63;;;11.05;64.56
30897;BME280;64229;52.246;21.054;2023-04-24T04:39:57;99601.00;;;10.73;65.37
30897;BME280;64229;52.246;21.054;2023-04-24T04:42:23;99613.19;;;10.84;65.89
30897;BME280;64229;52.246;21.054;2023-04-24T04:44:49;99607.63;;;10.81;66.07
30897;BME280;64229;52.246;21.054;2023-04-24T04:47:15;99604.03;;;10.90;65.83
30897;BME280;64229;52.246;21.054;2023-04-24T04:49:42;99598.94;;;10.94;65.53
30897;BME280;64229;52.246;21.054;2023-04-24T04:52:08;99596.72;;;11.01;65.33
30897;BME280;64229;52.246;21.054;2023-04-24T04:54:33;99592.13;;;11.07;65.20
30897;BME280;64229;52.246;21.054;2023-04-24T04:56:59;99596.59;;;11.11;65.08
30897;BME280;64229;52.246;21.054;2023-04-24T04:59:25;99594.00;;;11.06;65.32
30897;BME280;64229;52.246;21.054;2023-04-24T05:01:51;99589.78;;;11.00;65.27
30897;BME280;64229;52.246;21.054;2023-04-24T05:04:16;99594.56;;;11.03;65.33
30897;BME280;64229;52.246;21.054;2023-04-24T05:06:41;99594.34;;;10.99;65.14
30897;BME280;64229;52.246;21.054;2023-04-24T05:09:07;99590.59;;;11.00;65.53
30897;BME280;64229;52.246;21.054;2023-04-24T05:11:32;99586.78;;;11.07;65.25
30897;BME280;64229;52.246;21.054;2023-04-24T05:13:57;99589.34;;;11.17;64.91
30897;BME280;64229;52.246;21.054;2023-04-24T05:16:23;99595.13;;;11.24;65.12
30897;BME280;64229;52.246;21.054;2023-04-24T05:18:48;99583.19;;;11.40;64.64
30897;BME280;64229;52.246;21.054;2023-04-24T05:21:13;99590.34;;;11.64;63.15
30897;BME280;64229;52.246;21.054;2023-04-24T05:23:39;99592.88;;;11.74;62.97
30897;BME280;64229;52.246;21.054;2023-04-24T05:26:04;99588.22;;;11.84;62.64
30897;BME280;64229;52.246;21.054;2023-04-24T05:28:30;99594.41;;;11.99;61.96
30897;BME280;64229;52.246;21.054;2023-04-24T05:30:55;99590.94;;;12.17;60.90
30897;BME280;64229;52.246;21.054;2023-04-24T05:33:21;99596.41;;;12.26;61.43
30897;BME280;64229;52.246;21.054;2023-04-24T05:35:47;99588.44;;;12.53;60.07
30897;BME280;64229;52.246;21.054;2023-04-24T05:38:13;99584.22;;;12.66;60.15
30897;BME280;64229;52.246;21.054;2023-04-24T05:40:39;99590.56;;;12.70;60.27
30897;BME280;64229;52.246;21.054;2023-04-24T05:43:05;99577.88;;;12.75;60.17
30897;BME280;64229;52.246;21.054;2023-04-24T05:45:30;99581.25;;;12.95;59.30
30897;BME280;64229;52.246;21.054;2023-04-24T05:47:55;99575.22;;;13.03;57.53
30897;BME280;64229;52.246;21.054;2023-04-24T05:50:21;99577.88;;;13.17;57.43
30897;BME280;64229;52.246;21.054;2023-04-24T05:52:46;99585.25;;;13.25;57.20
30897;BME280;64229;52.246;21.054;2023-04-24T05:55:11;99582.06;;;13.37;57.32
30897;BME280;64229;52.246;21.054;2023-04-24T05:57:37;99577.97;;;13.53;57.28
30897;BME280;64229;52.246;21.054;2023-04-24T06:00:03;99582.69;;;13.70;56.98
30897;BME280;64229;52.246;21.054;2023-04-24T06:02:29;99578.63;;;13.72;56.62
30897;BME280;64229;52.246;21.054;2023-04-24T06:05:00;99574.16;;;13.68;56.88
30897;BME280;64229;52.246;21.054;2023-04-24T06:07:26;99579.06;;;13.88;57.17
30897;BME280;64229;52.246;21.054;2023-04-24T06:09:51;99570.91;;;13.93;56.08
30897;BME280;64229;52.246;21.054;2023-04-24T06:12:17;99573.16;;;14.00;55.84
30897;BME280;64229;52.246;21.054;2023-04-24T06:14:43;99563.28;;;14.09;55.24
30897;BME280;64229;52.246;21.054;2023-04-24T06:17:08;99576.31;;;14.24;55.09
30897;BME280;64229;52.246;21.054;2023-04-24T06:19:33;99567.78;;;14.22;54.97
30897;BME280;64229;52.246;21.054;2023-04-24T06:21:59;99565.91;;;14.45;54.34
30897;BME280;64229;52.246;21.054;2023-04-24T06:24:28;99560.53;;;14.45;54.94
30897;BME280;64229;52.246;21.054;2023-04-24T06:26:53;99563.47;;;14.57;55.08
30897;BME280;64229;52.246;21.054;2023-04-24T06:29:19;99564.31;;;14.75;54.68
30897;BME280;64229;52.246;21.054;2023-04-24T06:31:44;99566.25;;;14.83;54.91
30897;BME280;64229;52.246;21.054;2023-04-24T06:34:10;99569.09;;;14.87;54.43
30897;BME280;64229;52.246;21.054;2023-04-24T06:36:35;99556.03;;;14.94;54.11
30897;BME280;64229;52.246;21.054;2023-04-24T06:39:01;99560.94;;;15.09;53.85
30897;BME280;64229;52.246;21.054;2023-04-24T06:41:27;99563.66;;;15.18;53.44
30897;BME280;64229;52.246;21.054;2023-04-24T06:43:52;99559.75;;;15.24;53.32
30897;BME280;64229;52.246;21.054;2023-04-24T06:46:18;99555.31;;;15.28;53.05
30897;BME280;64229;52.246;21.054;2023-04-24T06:48:43;99556.28;;;15.32;53.07
30897;BME280;64229;52.246;21.054;2023-04-24T06:51:08;99555.50;;;15.31;53.45
30897;BME280;64229;52.246;21.054;2023-04-24T06:53:34;99548.34;;;15.27;53.74
30897;BME280;64229;52.246;21.054;2023-04-24T06:56:00;99544.25;;;15.29;53.09
30897;BME280;64229;52.246;21.054;2023-04-24T06:58:25;99554.09;;;15.43;53.21
30897;BME280;64229;52.246;21.054;2023-04-24T07:00:51;99558.69;;;15.59;53.23
30897;BME280;64229;52.246;21.054;2023-04-24T07:03:16;99552.56;;;15.76;52.73
30897;BME280;64229;52.246;21.054;2023-04-24T07:05:41;99557.59;;;16.04;51.30
30897;BME280;64229;52.246;21.054;2023-04-24T07:08:07;99547.94;;;16.11;50.37
30897;BME280;64229;52.246;21.054;2023-04-24T07:10:33;99560.03;;;16.52;49.18
30897;BME280;64229;52.246;21.054;2023-04-24T07:13:00;99562.22;;;16.76;48.52
30897;BME280;64229;52.246;21.054;2023-04-24T07:15:26;99564.66;;;16.98;48.46
30897;BME280;64229;52.246;21.054;2023-04-24T07:17:52;99551.38;;;17.23;47.67
30897;BME280;64229;52.246;21.054;2023-04-24T07:20:17;99551.28;;;17.31;47.47
30897;BME280;64229;52.246;21.054;2023-04-24T07:22:42;99539.72;;;17.52;46.91
30897;BME280;64229;52.246;21.054;2023-04-24T07:25:08;99538.91;;;17.81;46.00
30897;BME280;64229;52.246;21.054;2023-04-24T07:27:34;99538.56;;;17.82;46.51
30897;BME280;64229;52.246;21.054;2023-04-24T07:30:01;99541.94;;;18.12;46.03
30897;BME280;64229;52.246;21.054;2023-04-24T07:32:26;99545.44;;;18.13;46.11
30897;BME280;64229;52.246;21.054;2023-04-24T07:34:51;99546.25;;;18.26;46.54
30897;BME280;64229;52.246;21.054;2023-04-24T07:37:17;99537.13;;;18.63;44.26
30897;BME280;64229;52.246;21.054;2023-04-24T07:39:42;99540.66;;;18.76;43.24
30897;BME280;64229;52.246;21.054;2023-04-24T07:42:08;99543.91;;;18.82;43.53
30897;BME280;64229;52.246;21.054;2023-04-24T07:44:33;99544.91;;;19.01;43.72
30897;BME280;64229;52.246;21.054;2023-04-24T07:46:58;99532.75;;;19.20;42.88
30897;BME280;64229;52.246;21.054;2023-04-24T07:49:24;99540.03;;;19.44;43.13
30897;BME280;64229;52.246;21.054;2023-04-24T07:51:49;99538.88;;;19.69;42.57
30897;BME280;64229;52.246;21.054;2023-04-24T07:54:15;99540.69;;;19.93;40.99
30897;BME280;64229;52.246;21.054;2023-04-24T07:56:41;99536.66;;;20.15;40.90
30897;BME280;64229;52.246;21.054;2023-04-24T07:59:08;99537.59;;;20.50;39.91
30897;BME280;64229;52.246;21.054;2023-04-24T08:01:35;99525.00;;;20.90;37.91
30897;BME280;64229;52.246;21.054;2023-04-24T08:04:00;99540.94;;;21.26;38.05
30897;BME280;64229;52.246;21.054;2023-04-24T08:06:25;99532.22;;;21.52;37.52
30897;BME280;64229;52.246;21.054;2023-04-24T08:08:57;99530.78;;;22.16;36.11
30897;BME280;64229;52.246;21.054;2023-04-24T08:11:24;99530.81;;;22.85;36.14
30897;BME280;64229;52.246;21.054;2023-04-24T08:13:49;99541.50;;;24.14;32.47
30897;BME280;64229;52.246;21.054;2023-04-24T08:16:15;99535.13;;;24.88;30.47
30897;BME280;64229;52.246;21.054;2023-04-24T08:18:40;99546.34;;;25.23;30.79
30897;BME280;64229;52.246;21.054;2023-04-24T08:21:06;99545.25;;;27.11;28.11
30897;BME280;64229;52.246;21.054;2023-04-24T08:23:31;99541.19;;;29.35;25.74
30897;BME280;64229;52.246;21.054;2023-04-24T08:25:56;99541.88;;;29.43;25.81
30897;BME280;64229;52.246;21.054;2023-04-24T08:28:22;99542.78;;;28.43;26.36
30897;BME280;64229;52.246;21.054;2023-04-24T08:30:48;99539.00;;;27.14;28.23
30897;BME280;64229;52.246;21.054;2023-04-24T08:33:14;99542.59;;;25.56;29.80
30897;BME280;64229;52.246;21.054;2023-04-24T08:35:39;99538.53;;;24.70;30.75
30897;BME280;64229;52.246;21.054;2023-04-24T08:38:05;99543.50;;;24.58;31.11
30897;BME280;64229;52.246;21.054;2023-04-24T08:40:33;99535.91;;;24.37;31.28
30897;BME280;64229;52.246;21.054;2023-04-24T08:42:59;99531.81;;;24.23;31.40
30897;BME280;64229;52.246;21.054;2023-04-24T08:45:25;99537.50;;;24.04;31.70
30897;BME280;64229;52.246;21.054;2023-04-24T08:47:52;99533.75;;;23.56;32.35
30897;BME280;64229;52.246;21.054;2023-04-24T08:50:18;99538.09;;;23.30;32.01
30897;BME280;64229;52.246;21.054;2023-04-24T08:52:44;99535.66;;;23.82;30.58
30897;BME280;64229;52.246;21.054;2023-04-24T08:55:09;99510.94;;;23.64;30.96
30897;BME280;64229;52.246;21.054;2023-04-24T08:57:35;99540.09;;;23.93;30.76
30897;BME280;64229;52.246;21.054;2023-04-24T09:00:01;99530.22;;;23.82;30.93
30897;BME280;64229;52.246;21.054;2023-04-24T09:02:27;99528.06;;;23.98;30.26
30897;BME280;64229;52.246;21.054;2023-04-24T09:04:55;99504.91;;;24.18;29.96
30897;BME280;64229;52.246;21.054;2023-04-24T09:07:24;99533.56;;;24.35;30.69
30897;BME280;64229;52.246;21.054;2023-04-24T09:09:51;99533.03;;;24.67;30.03
30897;BME280;64229;52.246;21.054;2023-04-24T09:12:17;99534.94;;;24.63;30.57
30897;BME280;64229;52.246;21.054;2023-04-24T09:14:42;99518.19;;;24.23;31.94
30897;BME280;64229;52.246;21.054;2023-04-24T09:17:10;99528.84;;;23.99;32.46
30897;BME280;64229;52.246;21.054;2023-04-24T09:19:36;99530.59;;;24.14;31.99
30897;BME280;64229;52.246;21.054;2023-04-24T09:22:05;99526.47;;;24.31;31.89
30897;BME280;64229;52.246;21.054;2023-04-24T09:24:31;99520.66;;;23.95;32.48
30897;BME280;64229;52.246;21.054;2023-04-24T10:35:55;99443.84;;;24.27;31.16
30897;BME280;64229;52.246;21.054;2023-04-24T10:38:25;99444.94;;;24.22;31.41
30897;BME280;64229;52.246;21.054;2023-04-24T10:40:57;99454.16;;;24.03;31.77
30897;BME280;64229;52.246;21.054;2023-04-24T10:43:23;99445.63;;;23.71;31.54
30897;BME280;64229;52.246;21.054;2023-04-24T10:46:02;99435.84;;;23.63;31.66
30897;BME280;64229;52.246;21.054;2023-04-24T10:48:28;99436.16;;;23.28;32.31
30897;BME280;64229;52.246;21.054;2023-04-24T10:50:54;99436.19;;;22.98;32.36
30897;BME280;64229;52.246;21.054;2023-04-24T10:53:22;99435.06;;;23.02;32.02
30897;BME280;64229;52.246;21.054;2023-04-24T10:56:05;99440.13;;;22.77;31.57
30897;BME280;64229;52.246;21.054;2023-04-24T10:58:43;99433.16;;;22.80;31.28
30897;BME280;64229;52.246;21.054;2023-04-24T11:01:32;99434.63;;;22.74;31.09
30897;BME280;64229;52.246;21.054;2023-04-24T11:04:00;99432.22;;;22.42;30.61
30897;BME280;64229;52.246;21.054;2023-04-24T11:06:43;99432.91;;;22.62;31.67
30897;BME280;64229;52.246;21.054;2023-04-24T11:09:10;99419.63;;;22.84;30.92
30897;BME280;64229;52.246;21.054;2023-04-24T11:11:38;99431.03;;;22.93;30.78
30897;BME280;64229;52.246;21.054;2023-04-24T11:14:06;99431.88;;;22.44;30.80
30897;BME280;64229;52.246;21.054;2023-04-24T11:16:39;99430.47;;;22.08;30.37
30897;BME280;64229;52.246;21.054;2023-04-24T11:21:46;99427.13;;;21.95;31.32
30897;BME280;64229;52.246;21.054;2023-04-24T11:24:23;99422.13;;;22.20;31.25
30897;BME280;64229;52.246;21.054;2023-04-24T11:26:51;99426.44;;;22.44;30.71
30897;BME280;64229;52.246;21.054;2023-04-24T11:29:19;99418.53;;;22.62;29.60
30897;BME280;64229;52.246;21.054;2023-04-24T11:31:45;99418.53;;;22.35;30.25
30897;BME280;64229;52.246;21.054;2023-04-24T11:34:15;99414.22;;;22.34;30.50
30897;BME280;64229;52.246;21.054;2023-04-24T11:36:45;99418.47;;;22.58;30.25
30897;BME280;64229;52.246;21.054;2023-04-24T11:39:12;99411.81;;;22.82;30.47
30897;BME280;64229;52.246;21.054;2023-04-24T11:41:38;99406.03;;;23.14;30.06
30897;BME280;64229;52.246;21.054;2023-04-24T11:44:06;99408.81;;;23.51;28.76
30897;BME280;64229;52.246;21.054;2023-04-24T11:46:32;99409.91;;;23.80;28.88
30897;BME280;64229;52.246;21.054;2023-04-24T11:48:58;99410.41;;;23.92;27.41
30897;BME280;64229;52.246;21.054;2023-04-24T11:51:24;99422.16;;;23.97;27.95
30897;BME280;64229;52.246;21.054;2023-04-24T11:53:54;99411.41;;;24.14;27.48
30897;BME280;64229;52.246;21.054;2023-04-24T11:56:21;99409.56;;;24.29;26.13
30897;BME280;64229;52.246;21.054;2023-04-24T11:58:47;99403.69;;;24.23;26.49
30897;BME280;64229;52.246;21.054;2023-04-24T12:01:13;99398.13;;;24.09;26.85
30897;BME280;64229;52.246;21.054;2023-04-24T12:03:39;99398.22;;;23.79;27.44
30897;BME280;64229;52.246;21.054;2023-04-24T12:06:08;99399.56;;;23.96;27.23
30897;BME280;64229;52.246;21.054;2023-04-24T12:08:34;99377.03;;;24.03;27.38
30897;BME280;64229;52.246;21.054;2023-04-24T12:11:00;99397.72;;;24.07;27.42
30897;BME280;64229;52.246;21.054;2023-04-24T12:13:26;99381.50;;;23.81;27.88
30897;BME280;64229;52.246;21.054;2023-04-24T12:15:51;99378.16;;;23.98;26.83
30897;BME280;64229;52.246;21.054;2023-04-24T12:18:17;99380.31;;;23.07;27.74
30897;BME280;64229;52.246;21.054;2023-04-24T12:20:42;99379.88;;;23.05;27.52
30897;BME280;64229;52.246;21.054;2023-04-24T12:23:07;99374.28;;;22.91;27.81
30897;BME280;64229;52.246;21.054;2023-04-24T12:25:33;99367.97;;;23.17;26.93
30897;BME280;64229;52.246;21.054;2023-04-24T12:30:38;99362.50;;;23.14;27.00
30897;BME280;64229;52.246;21.054;2023-04-24T12:33:04;99357.41;;;22.82;28.21
30897;BME280;64229;52.246;21.054;2023-04-24T12:35:32;99363.50;;;22.98;28.21
30897;BME280;64229;52.246;21.054;2023-04-24T12:38:12;99361.03;;;22.90;27.32
30897;BME280;64229;52.246;21.054;2023-04-24T12:40:38;99356.91;;;22.99;27.18
30897;BME280;64229;52.246;21.054;2023-04-24T12:43:16;99349.00;;;23.24;28.30
30897;BME280;64229;52.246;21.054;2023-04-24T12:45:42;99352.91;;;23.27;28.36
30897;BME280;64229;52.246;21.054;2023-04-24T12:48:07;99351.59;;;23.14;29.46
30897;BME280;64229;52.246;21.054;2023-04-24T12:50:33;99352.84;;;23.20;28.98
30897;BME280;64229;52.246;21.054;2023-04-24T12:52:58;99364.88;;;23.52;30.09
30897;BME280;64229;52.246;21.054;2023-04-24T12:55:23;99378.75;;;23.40;30.70
30897;BME280;64229;52.246;21.054;2023-04-24T12:57:49;99378.13;;;22.64;31.64
30897;BME280;64229;52.246;21.054;2023-04-24T13:00:14;99384.91;;;21.78;33.22
30897;BME280;64229;52.246;21.054;2023-04-24T13:02:40;99390.25;;;21.71;33.46
30897;BME280;64229;52.246;21.054;2023-04-24T13:05:05;99375.88;;;21.93;33.05
30897;BME280;64229;52.246;21.054;2023-04-24T13:07:31;99381.75;;;22.18;32.71
30897;BME280;64229;52.246;21.054;2023-04-24T13:09:57;99372.97;;;22.29;33.06
30897;BME280;64229;52.246;21.054;2023-04-24T13:12:25;99384.94;;;22.01;32.68
30897;BME280;64229;52.246;21.054;2023-04-24T13:14:50;99382.75;;;21.87;33.02
30897;BME280;64229;52.246;21.054;2023-04-24T13:17:16;99386.22;;;21.65;33.95
30897;BME280;64229;52.246;21.054;2023-04-24T13:19:42;99372.25;;;21.24;33.71
30897;BME280;64229;52.246;21.054;2023-04-24T13:22:12;99362.47;;;21.00;34.45
30897;BME280;64229;52.246;21.054;2023-04-24T13:24:38;99351.25;;;21.21;34.63
30897;BME280;64229;52.246;21.054;2023-04-24T13:27:06;99357.88;;;21.62;33.45
30897;BME280;64229;52.246;21.054;2023-04-24T13:29:31;99363.81;;;21.91;32.45
30897;BME280;64229;52.246;21.054;2023-04-24T13:31:56;99347.56;;;22.17;31.55
30897;BME280;64229;52.246;21.054;2023-04-24T13:34:23;99367.19;;;22.57;31.09
30897;BME280;64229;52.246;21.054;2023-04-24T13:36:50;99364.50;;;22.60;30.59
30897;BME280;64229;52.246;21.054;2023-04-24T13:39:16;99368.81;;;22.65;30.55
30897;BME280;64229;52.246;21.054;2023-04-24T13:41:41;99390.63;;;22.42;31.02
30897;BME280;64229;52.246;21.054;2023-04-24T13:44:06;99383.59;;;22.37;31.28
30897;BME280;64229;52.246;21.054;2023-04-24T13:46:32;99385.28;;;22.00;31.43
30897;BME280;64229;52.246;21.054;2023-04-24T13:48:57;99387.22;;;21.76;31.77
30897;BME280;64229;52.246;21.054;2023-04-24T13:51:25;99381.06;;;21.18;33.15
30897;BME280;64229;52.246;21.054;2023-04-24T13:53:52;99383.53;;;21.46;32.62
30897;BME280;64229;52.246;21.054;2023-04-24T13:56:17;99389.34;;;21.44;32.33
30897;BME280;64229;52.246;21.054;2023-04-24T13:58:43;99384.53;;;21.57;31.47